createdAt,value
2018-05-07T13:47:59.300Z,29.50
2018-05-07T13:50:31.756Z,29.60
2018-05-07T13:53:04.258Z,28.80
2018-05-07T13:55:34.237Z,29.40
2018-05-07T13:58:05.775Z,29.80
2018-05-07T14:00:36.788Z,29.70
2018-05-07T14:03:09.601Z,29.50
2018-05-07T14:05:42.225Z,28.20
2018-05-07T14:08:20.935Z,28.20
2018-05-07T14:10:56.899Z,28.10
2018-05-07T14:13:30.117Z,27.90
2018-05-07T14:16:02.684Z,27.90
2018-05-07T14:18:34.938Z,28.40
2018-05-07T14:21:04.573Z,29.40
2018-05-07T14:23:34.436Z,30.10
2018-05-07T14:26:05.385Z,30.70
2018-05-07T14:28:35.870Z,30.80
2018-05-07T14:31:12.330Z,31.00
2018-05-07T14:33:47.918Z,30.90
2018-05-07T14:36:24.566Z,28.60
2018-05-07T14:39:00.221Z,28.60
2018-05-07T14:41:39.182Z,28.30
2018-05-07T14:44:30.184Z,28.30
2018-05-07T14:47:02.370Z,29.00
2018-05-07T14:49:35.510Z,29.70
2018-05-07T14:52:06.392Z,29.60
2018-05-07T14:54:36.056Z,29.60
2018-05-07T14:57:09.482Z,30.40
2018-05-07T14:59:39.504Z,30.40
2018-05-07T15:02:09.312Z,30.10
2018-05-07T15:04:39.096Z,30.20
2018-05-07T15:07:10.242Z,29.40
2018-05-07T15:09:41.192Z,29.40
2018-05-07T15:12:11.094Z,28.80
2018-05-07T15:14:43.686Z,28.20
2018-05-07T15:17:16.120Z,28.20
2018-05-07T15:19:48.478Z,28.10
2018-05-07T15:22:20.605Z,28.20
2018-05-07T15:24:51.316Z,27.70
2018-05-07T15:27:21.034Z,27.50
2018-05-07T15:29:51.224Z,27.60
2018-05-07T15:32:24.166Z,27.50
2018-05-07T15:34:54.570Z,27.50
2018-05-07T15:37:27.996Z,27.40
2018-05-07T15:39:59.851Z,27.20
2018-05-07T15:42:29.788Z,27.30
2018-05-07T15:45:02.645Z,27.00
2018-05-07T15:47:36.507Z,27.00
2018-05-07T15:50:08.310Z,27.20
2018-05-07T15:52:37.472Z,27.30
2018-05-07T15:55:17.198Z,27.50
2018-05-07T15:57:54.884Z,27.50
2018-05-07T16:00:28.087Z,27.80
2018-05-07T16:02:57.787Z,27.80
2018-05-07T16:05:30.595Z,27.80
2018-05-07T16:08:01.070Z,27.80
2018-05-07T16:10:32.647Z,27.60
2018-05-07T16:13:07.581Z,27.50
2018-05-07T16:15:38.447Z,27.40
2018-05-07T16:18:08.056Z,27.60
2018-05-07T16:20:41.344Z,27.60
2018-05-07T16:23:10.859Z,27.60
2018-05-07T16:25:41.623Z,27.30
2018-05-07T16:28:12.791Z,27.50
2018-05-07T16:30:44.044Z,27.50
2018-05-07T16:33:18.671Z,27.70
2018-05-07T16:35:53.239Z,27.70
2018-05-07T16:38:34.680Z,27.70
2018-05-07T16:41:13.418Z,27.50
2018-05-07T16:43:51.658Z,27.60
2018-05-07T16:46:30.047Z,27.60
2018-05-07T16:51:56.618Z,27.70
2018-05-07T16:54:34.816Z,27.20
2018-05-07T16:57:10.942Z,27.20
2018-05-07T16:59:42.038Z,27.20
2018-05-07T17:02:12.703Z,27.20
2018-05-07T17:04:42.471Z,27.00
2018-05-07T17:07:16.085Z,26.70
2018-05-07T17:09:46.806Z,26.70
2018-05-07T17:12:17.461Z,26.90
2018-05-07T17:14:49.878Z,26.80
2018-05-07T17:17:19.496Z,26.90
2018-05-07T17:19:50.629Z,26.90
2018-05-07T17:22:22.104Z,26.90
2018-05-07T17:24:54.424Z,26.80
2018-05-07T17:27:24.268Z,26.80
2018-05-07T17:29:55.325Z,26.70
2018-05-07T17:32:29.164Z,26.70
2018-05-07T17:35:01.674Z,26.60
2018-05-07T17:37:33.750Z,26.60
2018-05-07T17:40:06.123Z,26.60
2018-05-07T17:42:39.775Z,26.50
2018-05-07T17:45:21.439Z,26.40
2018-05-07T17:48:03.945Z,26.20
2018-05-07T17:50:33.395Z,26.20
2018-05-07T17:53:04.788Z,26.20
2018-05-07T17:55:34.512Z,26.20
2018-05-07T17:58:07.880Z,26.00
2018-05-07T18:00:41.447Z,25.90
2018-05-07T18:03:12.939Z,25.90
2018-05-07T18:05:46.590Z,25.80
2018-05-07T18:08:19.445Z,25.70
2018-05-07T18:10:51.241Z,25.60
2018-05-07T18:13:22.285Z,25.50
2018-05-07T18:15:54.805Z,25.50
2018-05-07T18:18:27.140Z,25.30
2018-05-07T18:20:57.157Z,25.30
2018-05-07T18:23:31.886Z,25.30
2018-05-07T18:26:01.615Z,25.20
2018-05-07T18:28:33.675Z,25.10
2018-05-07T18:31:06.043Z,25.00
2018-05-07T18:33:36.078Z,24.90
2018-05-07T18:36:09.054Z,24.90
2018-05-07T18:38:42.290Z,24.80
2018-05-07T18:41:15.097Z,24.70
2018-05-07T18:43:45.743Z,24.60
2018-05-07T18:46:18.813Z,24.50
2018-05-07T18:48:51.499Z,24.40
2018-05-07T18:51:21.655Z,24.30
2018-05-07T18:53:51.538Z,24.30
2018-05-07T18:56:21.881Z,24.10
2018-05-07T18:58:51.930Z,24.00
2018-05-07T19:01:22.970Z,23.90
2018-05-07T19:03:56.115Z,23.90
2018-05-07T19:06:26.212Z,23.80
2018-05-07T19:08:58.478Z,23.80
2018-05-07T19:11:31.612Z,23.70
2018-05-07T19:14:05.421Z,23.70
2018-05-07T19:16:35.820Z,23.50
2018-05-07T19:19:07.315Z,23.50
2018-05-07T19:21:37.280Z,23.40
2018-05-07T19:24:10.027Z,23.40
2018-05-07T19:26:41.855Z,23.20
2018-05-07T19:29:11.429Z,23.20
2018-05-07T19:31:51.497Z,23.20
2018-05-07T19:34:30.380Z,23.10
2018-05-07T19:37:07.036Z,23.00
2018-05-07T19:39:39.327Z,22.90
2018-05-07T19:42:10.166Z,22.90
2018-05-07T19:44:40.899Z,22.80
2018-05-07T19:47:13.929Z,22.60
2018-05-07T19:49:44.958Z,22.60
2018-05-07T19:52:17.048Z,22.60
2018-05-07T19:54:46.661Z,22.40
2018-05-07T19:57:18.575Z,22.40
2018-05-07T19:59:50.866Z,22.30
2018-05-07T20:02:20.144Z,22.20
2018-05-07T20:04:50.440Z,22.10
2018-05-07T20:07:21.743Z,22.00
2018-05-07T20:09:51.726Z,22.00
2018-05-07T20:12:21.373Z,21.90
2018-05-07T20:14:53.944Z,21.70
2018-05-07T20:17:25.944Z,21.70
2018-05-07T20:19:57.525Z,21.50
2018-05-07T20:22:29.581Z,21.50
2018-05-07T20:25:00.764Z,21.50
2018-05-07T20:27:30.541Z,21.40
2018-05-07T20:30:01.646Z,21.30
2018-05-07T20:32:33.897Z,21.30
2018-05-07T20:35:04.239Z,21.30
2018-05-07T20:37:37.915Z,21.20
2018-05-07T20:40:08.043Z,21.10
2018-05-07T20:42:38.223Z,21.00
2018-05-07T20:45:07.882Z,20.90
2018-05-07T20:47:39.565Z,20.80
2018-05-07T20:50:10.457Z,20.70
2018-05-07T20:52:39.852Z,20.70
2018-05-07T20:55:11.947Z,20.60
2018-05-07T20:57:42.206Z,20.50
2018-05-07T21:00:15.016Z,20.40
2018-05-07T21:02:46.650Z,20.40
2018-05-07T21:05:17.051Z,20.20
2018-05-07T21:07:48.710Z,20.10
2018-05-07T21:10:19.099Z,20.10
2018-05-07T21:12:48.628Z,20.00
2018-05-07T21:15:20.666Z,20.10
2018-05-07T21:17:51.761Z,20.00
2018-05-07T21:20:23.541Z,20.00
2018-05-07T21:22:53.443Z,20.00
2018-05-07T21:25:25.345Z,20.00
2018-05-07T21:27:57.567Z,20.00
2018-05-07T21:30:30.714Z,20.00
2018-05-07T21:33:02.562Z,20.00
2018-05-07T21:35:34.909Z,20.00
2018-05-07T21:38:07.412Z,20.00
2018-05-07T21:40:37.417Z,19.90
2018-05-07T21:43:06.999Z,19.90
2018-05-07T21:45:39.006Z,19.90
2018-05-07T21:48:11.237Z,19.90
2018-05-07T21:50:41.258Z,19.90
2018-05-07T21:53:14.368Z,19.80
2018-05-07T21:55:45.174Z,19.80
2018-05-07T21:58:15.850Z,19.70
2018-05-07T22:00:46.371Z,19.60
2018-05-07T22:03:16.008Z,19.50
2018-05-07T22:05:46.396Z,19.50
2018-05-07T22:08:17.136Z,19.50
2018-05-07T22:10:46.538Z,19.40
2018-05-07T22:13:18.474Z,19.40
2018-05-07T22:15:48.111Z,19.40
2018-05-07T22:18:19.592Z,19.40
2018-05-07T22:20:50.606Z,19.20
2018-05-07T22:23:22.564Z,19.20
2018-05-07T22:25:54.486Z,19.20
2018-05-07T22:28:24.744Z,19.10
2018-05-07T22:30:55.588Z,19.10
2018-05-07T22:33:27.361Z,19.10
2018-05-07T22:35:58.588Z,19.00
2018-05-07T22:38:28.087Z,19.00
2018-05-07T22:40:59.988Z,19.00
2018-05-07T22:43:30.554Z,19.00
2018-05-07T22:46:03.082Z,19.00
2018-05-07T22:48:33.130Z,19.00
2018-05-07T22:51:03.748Z,19.00
2018-05-07T22:53:35.876Z,18.90
2018-05-07T22:56:05.420Z,18.90
2018-05-07T22:58:38.055Z,18.90
2018-05-07T23:01:08.815Z,18.80
2018-05-07T23:03:40.467Z,18.80
2018-05-07T23:06:11.179Z,18.80
2018-05-07T23:08:40.755Z,18.80
2018-05-07T23:11:11.729Z,18.80
2018-05-07T23:13:41.125Z,18.80
2018-05-07T23:16:10.490Z,18.70
2018-05-07T23:18:43.750Z,18.80
2018-05-07T23:21:16.460Z,18.70
2018-05-07T23:23:49.348Z,18.70
2018-05-07T23:26:19.673Z,18.60
2018-05-07T23:28:50.041Z,18.70
2018-05-07T23:31:20.741Z,18.60
2018-05-07T23:33:52.707Z,18.70
2018-05-07T23:36:24.594Z,18.60
2018-05-07T23:38:56.796Z,18.50
2018-05-07T23:41:29.677Z,18.50
2018-05-07T23:43:59.259Z,18.50
2018-05-07T23:46:29.232Z,18.50
2018-05-07T23:49:01.908Z,18.40
2018-05-07T23:51:32.228Z,18.30
2018-05-07T23:54:05.051Z,18.30
2018-05-07T23:56:34.603Z,18.30
2018-05-07T23:59:05.051Z,18.30
